Time;durP1;ratioP1;P1;durP2;ratioP2;P2;SDS_P1;SDS_P2;PMS_P1;PMS_P2;Temp;Humidity;BMP_temperature;BMP_pressure;BME280_temperature;BME280_humidity;BME280_pressure;Samples;Min_cycle;Max_cycle;Signal;HPM_P1;HPM_P2
2024/04/09 00:00:51;;;;;;;31.58;21.15;;;14.10;99.90;;;;;;5365957;26;20354;-65
2024/04/09 00:03:17;;;;;;;31.83;20.45;;;14.10;99.90;;;;;;5364933;26;20380;-67
2024/04/09 00:05:43;;;;;;;29.00;20.17;;;14.20;99.90;;;;;;5367448;26;20237;-68
2024/04/09 00:08:12;;;;;;;32.88;20.00;;;14.20;99.90;;;;;;5366237;26;20233;-68
2024/04/09 00:10:39;;;;;;;30.55;20.90;;;14.20;99.90;;;;;;5366823;26;20230;-68
2024/04/09 00:13:05;;;;;;;29.65;20.15;;;14.20;99.90;;;;;;5366495;26;20339;-68
2024/04/09 00:15:31;;;;;;;32.33;20.05;;;14.20;99.90;;;;;;5362500;26;20787;-68
2024/04/09 00:18:14;;;;;;;29.92;20.77;;;14.20;99.90;;;;;;5334163;26;20249;-68
2024/04/09 00:20:44;;;;;;;31.73;19.95;;;14.20;99.90;;;;;;5366029;26;20709;-68
2024/04/09 00:23:16;;;;;;;30.63;19.95;;;14.20;99.90;;;;;;5366044;26;20293;-68
2024/04/09 00:25:45;;;;;;;26.10;19.67;;;14.20;99.90;;;;;;5367014;26;20742;-65
2024/04/09 00:28:11;;;;;;;30.25;20.15;;;14.20;99.90;;;;;;5366650;26;20287;-66
2024/04/09 00:30:39;;;;;;;30.75;19.25;;;14.20;99.90;;;;;;5364522;26;20279;-66
2024/04/09 00:33:07;;;;;;;30.88;20.40;;;14.30;99.90;;;;;;5362045;26;20352;-70
2024/04/09 00:35:32;;;;;;;29.05;19.33;;;14.30;99.90;;;;;;5366489;26;20300;-68
2024/04/09 00:37:59;;;;;;;26.40;20.13;;;14.30;99.90;;;;;;5366816;26;20230;-69
2024/04/09 00:40:26;;;;;;;27.75;19.27;;;14.30;99.90;;;;;;5364620;26;20233;-69
2024/04/09 00:42:57;;;;;;;32.42;19.75;;;14.30;99.90;;;;;;5364459;26;20325;-69
2024/04/09 00:45:23;;;;;;;30.48;20.60;;;14.30;99.90;;;;;;5364860;26;20233;-68
2024/04/09 00:47:50;;;;;;;31.13;20.02;;;14.40;99.90;;;;;;5366587;26;20287;-67
2024/04/09 00:50:17;;;;;;;31.55;19.65;;;14.40;99.90;;;;;;5364441;26;20226;-68
2024/04/09 00:52:45;;;;;;;38.42;20.40;;;14.40;99.90;;;;;;5366731;26;20289;-67
2024/04/09 00:55:11;;;;;;;26.92;20.30;;;14.40;99.90;;;;;;5366599;26;20351;-67
2024/04/09 00:57:39;;;;;;;29.58;21.23;;;14.40;99.90;;;;;;5364881;26;20279;-66
2024/04/09 01:00:12;;;;;;;31.92;22.42;;;14.50;99.90;;;;;;5366321;26;20846;-67
2024/04/09 01:02:38;;;;;;;34.03;21.50;;;14.50;99.90;;;;;;5364724;26;20237;-66
2024/04/09 01:05:05;;;;;;;38.95;23.10;;;14.50;99.90;;;;;;5363018;26;20234;-68
2024/04/09 01:07:32;;;;;;;35.67;22.25;;;14.60;99.90;;;;;;5361138;26;20237;-69
2024/04/09 01:09:58;;;;;;;37.63;22.02;;;14.60;99.90;;;;;;5364121;26;20276;-68
2024/04/09 01:12:24;;;;;;;37.05;21.77;;;14.70;99.90;;;;;;5365184;26;20241;-67
2024/04/09 01:14:50;;;;;;;36.97;21.48;;;14.70;99.90;;;;;;5365941;26;20733;-68
2024/04/09 01:17:16;;;;;;;34.50;21.88;;;14.70;99.90;;;;;;5365274;26;20283;-68
2024/04/09 01:19:42;;;;;;;32.08;22.10;;;14.80;99.90;;;;;;5366462;26;20238;-68
2024/04/09 01:22:08;;;;;;;42.10;22.45;;;14.90;99.90;;;;;;5365936;26;20807;-68
2024/04/09 01:24:34;;;;;;;34.90;22.25;;;14.90;99.90;;;;;;5362409;26;20237;-67
2024/04/09 01:27:04;;;;;;;35.78;21.77;;;14.90;99.90;;;;;;5367832;26;20284;-68
2024/04/09 01:29:30;;;;;;;34.72;21.70;;;14.90;99.90;;;;;;5369461;26;20272;-68
2024/04/09 01:31:57;;;;;;;37.35;20.95;;;15.00;99.90;;;;;;5364938;26;20285;-69
2024/04/09 01:34:23;;;;;;;37.65;20.95;;;15.00;99.90;;;;;;5365895;26;20245;-68
2024/04/09 01:36:48;;;;;;;39.38;20.67;;;15.00;99.90;;;;;;5367831;26;20239;-68
2024/04/09 01:39:15;;;;;;;37.70;20.35;;;15.00;99.90;;;;;;5365172;26;20237;-68
2024/04/09 01:41:41;;;;;;;38.10;20.83;;;15.00;99.90;;;;;;5366058;26;20336;-67
2024/04/09 01:44:07;;;;;;;34.83;21.58;;;15.10;99.90;;;;;;5366984;26;20338;-69
2024/04/09 01:46:34;;;;;;;35.42;22.48;;;15.00;99.90;;;;;;5338719;26;20280;-67
2024/04/09 01:48:59;;;;;;;40.13;22.83;;;15.10;99.90;;;;;;5369456;26;20289;-68
2024/04/09 01:51:25;;;;;;;39.88;23.83;;;15.10;99.90;;;;;;5369017;26;20748;-68
2024/04/09 01:53:52;;;;;;;38.92;24.48;;;15.10;99.90;;;;;;5364434;26;20245;-68
2024/04/09 01:56:18;;;;;;;35.20;24.58;;;15.10;99.90;;;;;;5367425;26;20268;-68
2024/04/09 01:58:46;;;;;;;36.45;24.90;;;15.00;99.90;;;;;;5368216;26;20704;-68
2024/04/09 02:01:12;;;;;;;38.05;25.25;;;15.00;99.90;;;;;;5368258;26;20624;-68
2024/04/09 02:03:38;;;;;;;40.47;26.60;;;15.10;99.90;;;;;;5368828;26;20229;-68
2024/04/09 02:06:05;;;;;;;35.85;26.58;;;15.00;99.90;;;;;;5365844;26;20256;-69
2024/04/09 02:08:32;;;;;;;37.72;27.15;;;15.10;99.90;;;;;;5368712;26;20307;-68
2024/04/09 02:10:59;;;;;;;42.75;28.48;;;15.10;99.90;;;;;;5366682;26;20237;-68
2024/04/09 02:13:25;;;;;;;42.60;28.48;;;15.10;99.90;;;;;;5368981;26;20346;-68
2024/04/09 02:15:52;;;;;;;42.13;28.33;;;15.10;99.90;;;;;;5368435;26;20256;-68
2024/04/09 02:18:18;;;;;;;42.30;28.27;;;15.10;99.90;;;;;;5368720;26;20733;-68
2024/04/09 02:20:44;;;;;;;42.08;28.67;;;15.00;99.90;;;;;;5369439;26;20311;-68
2024/04/09 02:23:10;;;;;;;40.30;28.75;;;15.00;99.90;;;;;;5368727;26;20590;-68
2024/04/09 02:25:39;;;;;;;37.47;30.02;;;15.00;99.90;;;;;;5367798;26;20229;-67
2024/04/09 02:28:05;;;;;;;39.40;29.75;;;15.00;99.90;;;;;;5368883;26;20350;-69
2024/04/09 02:30:32;;;;;;;49.30;31.70;;;15.00;99.90;;;;;;5363053;26;20246;-65
2024/04/09 02:32:58;;;;;;;45.70;31.00;;;15.00;99.90;;;;;;5366595;26;20253;-67
2024/04/09 02:35:24;;;;;;;45.45;30.17;;;15.00;99.90;;;;;;5367814;26;20280;-68
2024/04/09 02:37:50;;;;;;;41.70;29.77;;;15.00;99.90;;;;;;5368227;26;20241;-68
2024/04/09 02:40:16;;;;;;;48.10;31.55;;;15.00;99.90;;;;;;5365548;26;20359;-67
2024/04/09 02:42:43;;;;;;;45.30;32.00;;;15.00;99.90;;;;;;5368007;26;20234;-66
2024/04/09 02:45:09;;;;;;;48.45;33.50;;;15.00;99.90;;;;;;5368218;26;20249;-68
2024/04/09 02:47:35;;;;;;;52.10;32.90;;;15.00;99.90;;;;;;5368399;26;20277;-68
2024/04/09 02:50:02;;;;;;;47.50;33.42;;;15.00;99.90;;;;;;5367814;26;20670;-68
2024/04/09 02:52:31;;;;;;;51.67;33.20;;;15.00;99.90;;;;;;5367200;26;20333;-68
2024/04/09 02:54:57;;;;;;;48.65;32.88;;;15.00;99.90;;;;;;5369066;26;20271;-68
2024/04/09 02:57:22;;;;;;;46.53;31.67;;;14.90;99.90;;;;;;5367895;26;20238;-68
2024/04/09 02:59:54;;;;;;;45.22;31.27;;;14.90;99.90;;;;;;5366540;26;20229;-67
2024/04/09 03:02:20;;;;;;;43.90;31.30;;;14.90;99.90;;;;;;5367976;26;21019;-68
2024/04/09 03:04:46;;;;;;;47.35;30.88;;;14.90;99.90;;;;;;5368658;26;20271;-69
2024/04/09 03:07:12;;;;;;;45.38;30.35;;;14.90;99.90;;;;;;5368551;26;20241;-68
2024/04/09 03:09:38;;;;;;;46.67;30.00;;;14.90;99.90;;;;;;5367170;26;20371;-67
2024/04/09 03:12:04;;;;;;;42.45;30.05;;;14.90;99.90;;;;;;5365320;26;20259;-67
2024/04/09 03:14:30;;;;;;;41.92;29.20;;;14.80;99.90;;;;;;5365124;26;20249;-68
2024/04/09 03:16:56;;;;;;;45.83;30.55;;;14.80;99.90;;;;;;5369059;26;20279;-69
2024/04/09 03:19:22;;;;;;;48.10;30.00;;;14.80;99.90;;;;;;5366393;26;20705;-68
2024/04/09 03:21:47;;;;;;;45.42;29.35;;;14.80;99.90;;;;;;5368150;26;20698;-68
2024/04/09 03:24:13;;;;;;;46.85;28.45;;;14.80;99.90;;;;;;5368482;26;20279;-67
2024/04/09 03:26:39;;;;;;;46.00;29.40;;;14.80;99.90;;;;;;5368546;26;20591;-67
2024/04/09 03:29:05;;;;;;;41.22;27.45;;;14.80;99.90;;;;;;5364013;26;20226;-67
2024/04/09 03:31:30;;;;;;;49.20;29.63;;;14.80;99.90;;;;;;5367694;26;20230;-68
2024/04/09 03:33:56;;;;;;;45.47;27.25;;;14.80;99.90;;;;;;5366405;26;20293;-68
2024/04/09 03:36:22;;;;;;;41.75;27.40;;;14.80;99.90;;;;;;5367587;26;20233;-68
2024/04/09 03:38:48;;;;;;;46.60;28.10;;;14.80;99.90;;;;;;5366121;26;20280;-69
2024/04/09 03:41:13;;;;;;;36.05;25.17;;;14.80;99.90;;;;;;5367559;26;20229;-68
2024/04/09 03:43:39;;;;;;;37.03;26.17;;;14.80;99.90;;;;;;5367778;26;20343;-68
2024/04/09 03:46:07;;;;;;;40.97;26.33;;;14.80;99.90;;;;;;5365538;26;20335;-68
2024/04/09 03:48:38;;;;;;;37.83;24.60;;;14.80;99.90;;;;;;5365060;26;20277;-67
2024/04/09 03:51:05;;;;;;;40.47;25.00;;;14.90;99.90;;;;;;5367130;26;20322;-67
2024/04/09 03:53:32;;;;;;;44.45;24.15;;;14.90;99.90;;;;;;5365338;26;20626;-68
2024/04/09 03:55:59;;;;;;;33.78;23.05;;;14.90;99.90;;;;;;5366830;26;20230;-68
2024/04/09 03:58:39;;;;;;;34.33;21.83;;;14.90;99.90;;;;;;5365726;26;20276;-67
2024/04/09 04:01:06;;;;;;;29.45;20.55;;;14.90;99.90;;;;;;5366289;26;20230;-68
2024/04/09 04:03:32;;;;;;;32.05;20.23;;;14.90;99.90;;;;;;5366824;26;20299;-68
2024/04/09 04:05:59;;;;;;;28.65;18.70;;;14.90;99.90;;;;;;5367300;26;20574;-68
2024/04/09 04:08:30;;;;;;;27.42;16.65;;;14.90;99.90;;;;;;5364386;26;20326;-68
2024/04/09 04:11:00;;;;;;;29.38;13.90;;;14.90;99.90;;;;;;5365563;26;20330;-67
2024/04/09 04:13:28;;;;;;;25.38;13.02;;;14.90;99.90;;;;;;5364481;26;20232;-68
2024/04/09 04:16:04;;;;;;;21.90;13.43;;;14.90;99.90;;;;;;5364799;26;20280;-68
2024/04/09 04:18:41;;;;;;;18.98;11.63;;;15.00;99.90;;;;;;5366588;26;20424;-67
2024/04/09 04:21:13;;;;;;;14.50;10.82;;;15.00;99.90;;;;;;5367203;26;21427;-68
2024/04/09 04:23:39;;;;;;;16.95;10.75;;;15.00;99.90;;;;;;5366835;26;20264;-67
2024/04/09 04:26:07;;;;;;;16.25;9.90;;;15.00;99.90;;;;;;5367214;26;20284;-69
2024/04/09 04:28:38;;;;;;;15.50;9.68;;;15.00;99.90;;;;;;5367155;26;20241;-68
2024/04/09 04:31:08;;;;;;;20.13;10.07;;;14.90;99.90;;;;;;5366320;26;20285;-65
2024/04/09 04:33:34;;;;;;;13.65;9.35;;;15.00;99.90;;;;;;5363234;26;20321;-68
2024/04/09 04:35:59;;;;;;;18.60;8.85;;;14.90;99.90;;;;;;5367342;26;20702;-68
2024/04/09 04:38:25;;;;;;;12.70;8.20;;;14.90;99.90;;;;;;5367296;26;20337;-68
2024/04/09 04:40:51;;;;;;;16.20;8.52;;;14.90;99.90;;;;;;5367349;26;20241;-69
2024/04/09 04:43:18;;;;;;;14.98;8.77;;;14.90;99.90;;;;;;5364715;26;20342;-68
2024/04/09 04:45:45;;;;;;;12.82;8.63;;;14.90;99.90;;;;;;5364669;26;20284;-68
2024/04/09 04:48:11;;;;;;;19.55;8.65;;;14.90;99.90;;;;;;5365634;26;20346;-67
2024/04/09 04:50:37;;;;;;;11.23;8.35;;;14.90;99.90;;;;;;5366817;26;20279;-67
2024/04/09 04:53:04;;;;;;;16.02;10.05;;;14.90;99.90;;;;;;5366419;26;20234;-67
2024/04/09 04:55:32;;;;;;;13.38;9.40;;;14.90;99.90;;;;;;5364457;26;20283;-67
2024/04/09 04:57:58;;;;;;;12.52;9.10;;;14.90;99.90;;;;;;5365023;26;20245;-66
2024/04/09 05:00:24;;;;;;;16.88;9.82;;;14.90;99.90;;;;;;5366943;26;20297;-67
2024/04/09 05:02:50;;;;;;;15.75;9.85;;;14.90;99.90;;;;;;5369161;26;20234;-66
2024/04/09 05:05:16;;;;;;;12.80;9.90;;;14.90;99.90;;;;;;5364502;26;20546;-67
2024/04/09 05:07:42;;;;;;;14.40;10.73;;;14.90;99.90;;;;;;5370130;26;20339;-66
2024/04/09 05:10:13;;;;;;;16.33;11.40;;;14.90;99.90;;;;;;5369086;26;20642;-66
2024/04/09 05:12:53;;;;;;;19.52;11.18;;;14.80;99.90;;;;;;5368918;26;20783;-66
2024/04/09 05:15:20;;;;;;;19.23;12.20;;;14.80;99.90;;;;;;5366269;26;20245;-67
2024/04/09 05:17:46;;;;;;;13.80;11.55;;;14.80;99.90;;;;;;5368543;26;20233;-68
2024/04/09 05:20:14;;;;;;;17.23;12.52;;;14.80;99.90;;;;;;5367306;26;20253;-68
2024/04/09 05:22:42;;;;;;;14.68;12.35;;;14.70;99.90;;;;;;5370497;26;20229;-67
2024/04/09 05:25:11;;;;;;;18.38;12.60;;;14.60;99.90;;;;;;5367217;26;20276;-67
2024/04/09 05:27:38;;;;;;;19.20;11.55;;;14.70;99.90;;;;;;5370126;26;20241;-66
2024/04/09 05:30:05;;;;;;;15.68;10.23;;;14.60;99.90;;;;;;5367793;26;20233;-67
2024/04/09 05:32:35;;;;;;;12.73;9.50;;;14.60;99.90;;;;;;5369554;26;20264;-67
2024/04/09 05:35:02;;;;;;;11.02;6.72;;;14.60;99.90;;;;;;5367747;26;20233;-66
2024/04/09 05:37:28;;;;;;;9.45;5.20;;;14.50;99.90;;;;;;5367978;26;20276;-67
2024/04/09 05:39:54;;;;;;;9.55;3.90;;;14.50;99.90;;;;;;5369671;26;20284;-66
2024/04/09 05:42:20;;;;;;;9.40;3.65;;;14.50;99.90;;;;;;5369430;26;20249;-67
2024/04/09 05:44:47;;;;;;;8.98;3.42;;;14.40;99.90;;;;;;5369266;26;20241;-68
2024/04/09 05:47:13;;;;;;;12.63;5.45;;;14.40;99.90;;;;;;5368581;26;20256;-68
2024/04/09 05:49:39;;;;;;;14.18;6.60;;;14.40;99.90;;;;;;5368138;26;20226;-67
2024/04/09 05:52:05;;;;;;;12.65;5.88;;;14.50;99.90;;;;;;5368592;26;20279;-69
2024/04/09 05:54:31;;;;;;;8.00;4.15;;;14.50;99.90;;;;;;5368857;26;20311;-66
2024/04/09 05:56:57;;;;;;;8.20;3.40;;;14.50;99.90;;;;;;5363402;26;20287;-65
2024/04/09 05:59:23;;;;;;;13.15;3.15;;;14.40;99.90;;;;;;5366527;26;20307;-68
2024/04/09 06:01:50;;;;;;;10.60;3.00;;;14.40;99.90;;;;;;5370390;26;20229;-69
2024/04/09 06:04:16;;;;;;;9.60;2.60;;;14.40;99.90;;;;;;5367346;26;20233;-68
2024/04/09 06:06:43;;;;;;;10.15;2.20;;;14.40;99.90;;;;;;5367584;26;20233;-67
2024/04/09 06:09:08;;;;;;;9.55;2.33;;;14.40;99.90;;;;;;5366799;26;20335;-67
2024/04/09 06:11:35;;;;;;;7.05;2.17;;;14.40;99.90;;;;;;5368702;26;20673;-68
2024/04/09 06:14:01;;;;;;;10.15;2.88;;;14.40;99.90;;;;;;5367177;26;20544;-69
2024/04/09 06:16:27;;;;;;;8.95;2.65;;;14.40;99.90;;;;;;5367679;26;20288;-69
2024/04/09 06:18:52;;;;;;;10.18;2.22;;;14.40;99.90;;;;;;5366633;26;21075;-68
2024/04/09 06:21:18;;;;;;;9.52;2.13;;;14.30;99.90;;;;;;5368139;26;20233;-68
2024/04/09 06:23:46;;;;;;;12.15;2.30;;;14.20;99.90;;;;;;5369239;26;20245;-69
2024/04/09 06:26:14;;;;;;;11.85;2.58;;;14.20;99.90;;;;;;5368450;26;20295;-68
2024/04/09 06:28:40;;;;;;;10.05;2.30;;;14.20;99.90;;;;;;5366727;26;20229;-68
2024/04/09 06:31:06;;;;;;;9.75;2.67;;;14.20;99.90;;;;;;5368369;26;20268;-68
2024/04/09 06:33:32;;;;;;;11.32;2.25;;;14.20;99.90;;;;;;5368454;26;20233;-68
2024/04/09 06:35:58;;;;;;;10.38;2.47;;;14.20;99.90;;;;;;5368793;26;20230;-68
2024/04/09 06:38:23;;;;;;;11.60;2.72;;;14.20;99.90;;;;;;5363905;26;20234;-68
2024/04/09 06:40:53;;;;;;;11.38;2.28;;;14.30;99.90;;;;;;5368467;26;20241;-69
2024/04/09 06:43:22;;;;;;;12.75;2.55;;;14.30;99.90;;;;;;5366788;26;20288;-67
2024/04/09 06:45:48;;;;;;;9.75;2.50;;;14.30;99.90;;;;;;5366465;26;20237;-69
2024/04/09 06:48:14;;;;;;;13.57;2.30;;;14.40;99.90;;;;;;5365043;26;20367;-67
2024/04/09 06:50:41;;;;;;;14.32;2.42;;;14.40;99.90;;;;;;5368482;26;20272;-67
2024/04/09 06:53:07;;;;;;;11.70;2.45;;;14.40;99.90;;;;;;5368758;26;20280;-66
2024/04/09 06:55:32;;;;;;;11.18;2.40;;;14.40;99.90;;;;;;5367750;26;20234;-70
2024/04/09 06:57:58;;;;;;;8.10;2.83;;;14.40;99.90;;;;;;5363916;26;20234;-67
2024/04/09 07:00:24;;;;;;;14.75;2.75;;;14.40;99.90;;;;;;5367153;26;20367;-68
2024/04/09 07:02:49;;;;;;;12.68;2.15;;;14.50;99.90;;;;;;5367008;26;20317;-67
2024/04/09 07:05:15;;;;;;;8.88;2.40;;;14.50;99.90;;;;;;5367147;26;20832;-68
2024/04/09 07:07:41;;;;;;;13.48;2.40;;;14.50;99.90;;;;;;5368535;26;20226;-68
2024/04/09 07:10:07;;;;;;;13.27;2.30;;;14.60;99.90;;;;;;5366595;26;20237;-69
2024/04/09 07:12:33;;;;;;;16.38;2.75;;;14.60;99.90;;;;;;5366930;26;20237;-68
2024/04/09 07:15:03;;;;;;;10.50;2.55;;;14.60;99.90;;;;;;5368830;26;20276;-69
2024/04/09 07:17:29;;;;;;;8.88;2.40;;;14.70;99.90;;;;;;5368646;26;20230;-68
2024/04/09 07:19:57;;;;;;;12.15;2.53;;;14.70;99.90;;;;;;5369043;26;20289;-68
2024/04/09 07:22:24;;;;;;;14.05;2.45;;;14.80;99.90;;;;;;5366261;26;20241;-68
2024/04/09 07:24:49;;;;;;;10.77;2.05;;;14.90;99.90;;;;;;5365398;26;20342;-68
2024/04/09 07:27:16;;;;;;;13.07;2.42;;;14.80;99.90;;;;;;5366325;26;20802;-66
2024/04/09 07:29:42;;;;;;;13.80;2.65;;;14.80;99.90;;;;;;5366352;26;20296;-68
2024/04/09 07:32:07;;;;;;;11.73;2.25;;;14.90;99.90;;;;;;5368870;26;20409;-68
2024/04/09 07:34:34;;;;;;;14.40;2.42;;;14.90;99.90;;;;;;5368510;26;20260;-67
2024/04/09 07:37:00;;;;;;;11.00;2.50;;;14.80;99.90;;;;;;5366983;26;20289;-68
2024/04/09 07:39:26;;;;;;;12.48;2.65;;;14.70;99.90;;;;;;5369295;26;20342;-68
2024/04/09 07:41:52;;;;;;;11.93;2.55;;;14.70;99.90;;;;;;5369354;26;20245;-68
2024/04/09 07:44:18;;;;;;;16.83;2.63;;;14.70;99.90;;;;;;5366976;26;20309;-68
2024/04/09 07:46:48;;;;;;;12.25;2.70;;;14.70;99.90;;;;;;5367369;26;20230;-68
2024/04/09 07:49:17;;;;;;;11.75;2.58;;;14.60;99.90;;;;;;5366530;26;20253;-69
2024/04/09 07:51:43;;;;;;;12.05;2.70;;;14.60;99.90;;;;;;5366223;26;20237;-68
2024/04/09 07:54:10;;;;;;;8.10;2.55;;;14.60;99.90;;;;;;5335334;26;20781;-69
2024/04/09 07:56:36;;;;;;;12.85;3.03;;;14.60;99.90;;;;;;5366986;26;20668;-65
2024/04/09 07:59:02;;;;;;;10.63;2.78;;;14.60;99.90;;;;;;5368058;26;20307;-67
2024/04/09 08:01:28;;;;;;;11.07;2.65;;;14.60;99.90;;;;;;5367471;26;20225;-67
2024/04/09 08:03:53;;;;;;;10.05;2.83;;;14.60;99.90;;;;;;5365283;26;20248;-68
2024/04/09 08:06:19;;;;;;;15.77;2.90;;;14.70;99.90;;;;;;5365370;26;20289;-68
2024/04/09 08:08:45;;;;;;;18.90;3.25;;;14.70;99.90;;;;;;5366217;26;20237;-67
2024/04/09 08:11:12;;;;;;;15.98;2.80;;;14.80;99.90;;;;;;5367169;26;20241;-67
2024/04/09 08:13:38;;;;;;;12.88;3.20;;;14.90;99.90;;;;;;5365912;26;20346;-67
2024/04/09 08:16:05;;;;;;;14.75;3.08;;;14.90;99.90;;;;;;5365442;26;20245;-68
2024/04/09 08:18:30;;;;;;;9.63;3.38;;;14.90;99.90;;;;;;5365473;26;20284;-67
2024/04/09 08:20:57;;;;;;;15.07;4.15;;;15.00;99.90;;;;;;5367014;26;20229;-68
2024/04/09 08:23:23;;;;;;;12.23;3.50;;;15.00;99.90;;;;;;5367321;26;20238;-67
2024/04/09 08:25:51;;;;;;;12.73;3.95;;;15.00;99.90;;;;;;5361957;26;20584;-66
2024/04/09 08:28:20;;;;;;;14.85;3.67;;;15.00;99.90;;;;;;5364379;26;20304;-67
2024/04/09 08:30:48;;;;;;;17.63;4.32;;;15.00;99.90;;;;;;5365747;26;20307;-66
2024/04/09 08:33:14;;;;;;;10.27;3.75;;;15.00;99.90;;;;;;5366121;26;20289;-67
2024/04/09 08:35:48;;;;;;;12.40;4.43;;;15.00;99.90;;;;;;5365962;26;20242;-68
2024/04/09 08:38:14;;;;;;;13.32;3.40;;;14.90;99.90;;;;;;5368414;26;20291;-68
2024/04/09 08:40:40;;;;;;;14.60;4.18;;;14.90;99.90;;;;;;5363396;26;20289;-66
2024/04/09 08:43:06;;;;;;;13.40;3.78;;;14.80;99.90;;;;;;5367225;26;20226;-67
2024/04/09 08:45:33;;;;;;;16.88;4.38;;;14.80;99.90;;;;;;5336747;26;21588;-67
2024/04/09 08:48:04;;;;;;;11.13;4.10;;;14.80;99.90;;;;;;5366095;26;20241;-67
2024/04/09 08:50:31;;;;;;;15.68;4.05;;;14.70;99.90;;;;;;5362435;26;20343;-67
2024/04/09 08:52:58;;;;;;;13.45;3.90;;;14.80;99.90;;;;;;5365822;26;20275;-68
2024/04/09 08:55:25;;;;;;;12.07;3.78;;;14.80;99.90;;;;;;5365711;26;20283;-67
2024/04/09 08:57:51;;;;;;;11.38;4.10;;;14.80;99.90;;;;;;5366688;26;20234;-67
2024/04/09 09:00:17;;;;;;;13.10;4.30;;;14.90;99.90;;;;;;5364714;26;20268;-67
2024/04/09 09:02:43;;;;;;;13.60;4.85;;;14.90;99.90;;;;;;5365584;26;20242;-66
2024/04/09 09:05:19;;;;;;;12.05;4.65;;;15.00;99.90;;;;;;5366341;26;20594;-66
2024/04/09 09:07:46;;;;;;;14.45;5.28;;;15.00;99.90;;;;;;5366751;26;20249;-67
2024/04/09 09:10:13;;;;;;;14.38;5.18;;;15.00;99.90;;;;;;5364723;26;20245;-68
2024/04/09 09:12:39;;;;;;;16.38;5.50;;;15.00;99.90;;;;;;5367485;26;21126;-69
2024/04/09 09:15:05;;;;;;;12.38;5.38;;;15.00;99.90;;;;;;5365991;26;20233;-68
2024/04/09 09:17:33;;;;;;;17.77;6.10;;;15.00;99.90;;;;;;5362887;26;20237;-66
2024/04/09 09:20:00;;;;;;;16.45;5.43;;;15.00;99.90;;;;;;5365444;26;20283;-67
2024/04/09 09:22:29;;;;;;;16.33;6.30;;;15.10;99.90;;;;;;5365641;26;20234;-67
2024/04/09 09:24:58;;;;;;;11.18;5.32;;;15.20;99.90;;;;;;5365785;26;20237;-67
2024/04/09 09:27:26;;;;;;;20.67;6.60;;;15.40;99.90;;;;;;5366041;26;20850;-67
2024/04/09 09:29:55;;;;;;;16.13;6.38;;;15.50;99.90;;;;;;5366209;26;20230;-67
2024/04/09 09:32:23;;;;;;;12.98;6.00;;;15.50;99.90;;;;;;5364844;26;20349;-67
2024/04/09 09:34:53;;;;;;;11.02;5.18;;;15.60;99.90;;;;;;5365660;26;20271;-68
2024/04/09 09:37:19;;;;;;;14.00;5.30;;;15.70;99.90;;;;;;5365970;26;20292;-67
2024/04/09 09:39:47;;;;;;;8.35;4.80;;;15.70;99.90;;;;;;5365504;26;20233;-67
2024/04/09 09:42:13;;;;;;;8.68;4.45;;;15.70;99.90;;;;;;5364963;26;20245;-68
2024/04/09 09:44:42;;;;;;;10.73;4.55;;;15.80;99.90;;;;;;5363457;26;20276;-68
2024/04/09 09:47:08;;;;;;;8.77;4.32;;;15.80;99.90;;;;;;5366031;26;20671;-66
2024/04/09 09:49:35;;;;;;;8.48;4.13;;;15.80;99.90;;;;;;5369653;26;20233;-67
2024/04/09 09:52:04;;;;;;;9.98;3.90;;;15.90;99.90;;;;;;5370711;26;20234;-67
2024/04/09 09:54:30;;;;;;;5.93;3.80;;;16.00;99.90;;;;;;5370065;26;20264;-66
2024/04/09 09:57:00;;;;;;;11.10;4.00;;;16.20;99.90;;;;;;5368054;26;20245;-68
2024/04/09 09:59:29;;;;;;;7.30;3.00;;;16.40;99.90;;;;;;5368298;26;20603;-67
2024/04/09 10:01:56;;;;;;;11.68;2.80;;;16.50;99.90;;;;;;5369902;26;20366;-67
2024/04/09 10:04:25;;;;;;;7.13;3.20;;;16.50;99.90;;;;;;5365520;26;20233;-69
2024/04/09 10:07:03;;;;;;;6.72;2.72;;;16.70;99.90;;;;;;5339049;26;20237;-69
2024/04/09 10:09:46;;;;;;;5.22;2.75;;;16.80;99.90;;;;;;5369158;26;20347;-66
2024/04/09 10:12:28;;;;;;;8.80;3.20;;;16.90;99.90;;;;;;5367585;26;20279;-67
2024/04/09 10:14:57;;;;;;;7.28;2.80;;;17.00;99.90;;;;;;5368545;26;20233;-69
2024/04/09 10:17:45;;;;;;;10.52;2.72;;;17.10;99.90;;;;;;5368250;26;20547;-68
2024/04/09 10:20:30;;;;;;;7.45;2.30;;;17.20;99.90;;;;;;5369085;26;20233;-69
2024/04/09 10:23:02;;;;;;;7.13;3.03;;;17.20;99.90;;;;;;5369441;26;20634;-69
2024/04/09 10:25:40;;;;;;;8.15;3.35;;;17.20;99.90;;;;;;5367493;26;20233;-67
2024/04/09 10:28:07;;;;;;;8.15;3.25;;;17.10;99.90;;;;;;5368732;26;20279;-67
2024/04/09 10:30:34;;;;;;;6.97;2.80;;;17.00;99.90;;;;;;5366893;26;20242;-66
2024/04/09 10:33:01;;;;;;;6.50;2.78;;;16.90;99.90;;;;;;5367941;26;20234;-67
2024/04/09 10:35:27;;;;;;;9.18;2.50;;;16.80;99.90;;;;;;5367462;26;20291;-67
2024/04/09 10:37:57;;;;;;;7.40;2.10;;;16.70;99.90;;;;;;5369156;26;20824;-67
2024/04/09 10:40:23;;;;;;;9.88;1.90;;;16.60;99.90;;;;;;5368531;26;20570;-69
2024/04/09 10:42:51;;;;;;;11.30;2.70;;;16.60;99.90;;;;;;5366378;26;20729;-69
2024/04/09 10:45:16;;;;;;;11.25;2.05;;;16.50;99.90;;;;;;5368528;26;21210;-69
2024/04/09 10:47:44;;;;;;;6.85;2.25;;;16.60;99.90;;;;;;5368578;26;20422;-69
2024/04/09 10:50:13;;;;;;;7.13;2.10;;;16.80;99.90;;;;;;5369398;26;20264;-69
2024/04/09 10:52:40;;;;;;;7.15;1.42;;;17.00;99.90;;;;;;5368792;26;20687;-68
2024/04/09 10:55:09;;;;;;;4.80;1.77;;;17.00;99.90;;;;;;5368657;26;20287;-65
2024/04/09 10:57:35;;;;;;;6.43;1.50;;;17.10;99.90;;;;;;5368215;26;20234;-66
2024/04/09 11:00:11;;;;;;;4.32;1.63;;;17.10;99.90;;;;;;5368357;26;20547;-67
2024/04/09 11:02:41;;;;;;;4.90;1.52;;;17.10;99.90;;;;;;5367786;26;20645;-68
2024/04/09 11:05:11;;;;;;;7.18;1.80;;;17.10;99.90;;;;;;5366411;26;20709;-67
2024/04/09 11:07:41;;;;;;;6.05;1.67;;;17.10;99.90;;;;;;5368305;26;20369;-66
2024/04/09 11:10:10;;;;;;;3.78;1.55;;;17.00;99.90;;;;;;5368443;26;20288;-67
2024/04/09 11:12:40;;;;;;;6.18;1.58;;;16.80;99.90;;;;;;5364020;26;20233;-67
2024/04/09 11:15:10;;;;;;;5.72;1.50;;;16.50;99.90;;;;;;5362852;26;20276;-68
2024/04/09 11:17:37;;;;;;;7.68;1.90;;;16.30;99.90;;;;;;5366816;26;20663;-67
2024/04/09 11:20:11;;;;;;;6.15;2.05;;;16.20;99.90;;;;;;5366420;26;20420;-68
2024/04/09 11:22:47;;;;;;;6.45;2.15;;;16.20;99.90;;;;;;5368198;26;20287;-67
2024/04/09 11:25:14;;;;;;;4.38;1.60;;;16.30;99.90;;;;;;5367133;26;20238;-68
2024/04/09 11:27:41;;;;;;;8.40;1.85;;;16.30;99.90;;;;;;5366912;26;20241;-68
2024/04/09 11:30:08;;;;;;;5.85;1.58;;;16.30;99.90;;;;;;5366344;26;20233;-69
2024/04/09 11:32:36;;;;;;;8.52;1.77;;;16.30;99.90;;;;;;5368136;26;20229;-68
2024/04/09 11:35:03;;;;;;;5.75;1.80;;;16.40;99.90;;;;;;5367585;26;20264;-67
2024/04/09 11:37:28;;;;;;;6.55;2.90;;;16.50;99.90;;;;;;5368689;26;20322;-68
2024/04/09 11:39:54;;;;;;;7.05;1.67;;;16.50;99.90;;;;;;5366264;26;20560;-68
2024/04/09 11:42:20;;;;;;;6.32;1.95;;;16.50;99.90;;;;;;5367226;26;20566;-67
2024/04/09 11:44:46;;;;;;;5.35;1.90;;;16.40;99.90;;;;;;5365776;26;20305;-68
2024/04/09 11:47:11;;;;;;;4.93;2.05;;;16.40;99.90;;;;;;5364583;26;20303;-66
2024/04/09 11:49:37;;;;;;;4.07;1.48;;;16.40;99.90;;;;;;5366494;26;20233;-68
2024/04/09 11:52:03;;;;;;;6.32;1.83;;;16.50;99.90;;;;;;5366694;26;20234;-68
2024/04/09 11:54:29;;;;;;;8.23;1.85;;;16.50;99.90;;;;;;5367125;26;20241;-68
2024/04/09 11:56:55;;;;;;;8.35;2.10;;;16.60;99.90;;;;;;5366964;26;20280;-68
2024/04/09 11:59:20;;;;;;;6.30;2.25;;;16.70;99.90;;;;;;5367081;26;20233;-69
2024/04/09 12:01:46;;;;;;;9.20;2.30;;;16.70;99.90;;;;;;5366983;26;20689;-66
2024/04/09 12:04:12;;;;;;;9.55;1.52;;;16.70;99.90;;;;;;5394726;26;20269;-67
2024/04/09 12:06:39;;;;;;;7.32;1.40;;;16.80;99.90;;;;;;5365994;26;20275;-67
2024/04/09 12:09:07;;;;;;;5.93;1.40;;;16.90;99.90;;;;;;5366521;26;20301;-67
2024/04/09 12:11:33;;;;;;;5.20;1.33;;;16.90;99.90;;;;;;5365699;26;20284;-66
2024/04/09 12:13:58;;;;;;;3.33;1.40;;;16.90;99.90;;;;;;5351261;26;20300;-67
2024/04/09 12:16:24;;;;;;;4.75;1.35;;;17.00;99.60;;;;;;5366315;26;20233;-67
2024/04/09 12:18:51;;;;;;;4.95;1.17;;;17.00;99.60;;;;;;5364782;26;20600;-69
2024/04/09 12:21:17;;;;;;;6.65;1.50;;;17.10;99.20;;;;;;5364664;26;20276;-68
2024/04/09 12:23:43;;;;;;;7.55;1.48;;;17.10;99.20;;;;;;5363924;26;20245;-67
2024/04/09 12:26:09;;;;;;;9.57;2.42;;;17.10;98.90;;;;;;5365342;26;20275;-67
2024/04/09 12:28:35;;;;;;;4.93;1.23;;;17.10;99.00;;;;;;5366131;26;20238;-67
2024/04/09 12:31:01;;;;;;;5.90;1.10;;;17.10;98.80;;;;;;5366310;26;20234;-68
2024/04/09 12:33:29;;;;;;;7.28;1.38;;;17.10;98.10;;;;;;5366405;26;20280;-68
2024/04/09 12:35:54;;;;;;;3.83;1.15;;;17.00;97.80;;;;;;5365795;26;20284;-67